Atkinsons Mills, Pennsylvania
Current Conditions -  °F | °C
As of 1:53 PM on Saturday 20 Dec 2014 (Local Time) from KUNV Reporting Station
Overcast Overcast  
Wind Chill: 22°   Ceiling: 1700
Heat Index: 28°   Visibility: 10mi
Dew Point: 21°   Wind: 6mph
Humidity: 74%   Direction: NA
Pressure: 30.21"   Gusts: NA
Location:  40.5138°N, 77.7384°W
Report Text: KUNV 201853Z VRB05KT 10SM OVC017 M02/M06 A3021
Loading
Personal Weather Stations






























Interactive Weather Map New forecast layout! Learn more

10-Day Weather Forecast

Advertisements
Track Severe Weather on mobile